Low Head, Tasmania

11:08 PM EST on August 30, 2014 (GMT +1000)
Deviot | Change Station
CLOSE
Current Station
Personal Weather Station
Location: Deviot, TASMANIA
Elevation: 56 ft
Nearby Weather Stations

Elev 56 ft 41.23 °S, 146.93 °E | Updated 3 seconds ago

Clear
Clear
48.4 °F
Feels Like 48 °F
N
1.6
Wind Variable Wind from South
Gusts 2.2 mph

Today
High -- | Low -- °F
--% Chance of Precip.
Yesterday
High -- | Low -- °F
Precip. -- in
6:41 AM 5:46 PM
Waxing Crescent, 22% visible
Pressure 30.21 in
Visibility 6.2 miles
Clouds
Windchill 48 °F
Dew Point 42 °F
Humidity 80%
Rainfall 0.00 in
Snow Depth Not available.
UV Not available.
Pollen Not available.
Air Quality Not available.
Flu Activity Not available.
METAR YMLT 301230Z AUTO 30005KT 9999 // NCD 06/04 Q1023

More Conditions Fewer Conditions

Pressure 30.21 in
Visibility 6.2 miles
Clouds
Windchill 48 °F
Dew Point 42 °F
Humidity 80%
Rainfall 0.00 in
Snow Depth Not available.
UV Not available.
Pollen Not available.
Air Quality Not available.
Flu Activity Not available.
METAR YMLT 301230Z AUTO 30005KT 9999 // NCD 06/04 Q1023

More Conditions Fewer Conditions

10-Day Weather Forecast

Almanac

Astronomy

Aug. 30, 2014 Rise Set
Actual Time 6:41 AM EST 5:46 PM EST
Civil Twilight 6:13 AM EST 6:14 PM EST
Nautical Twilight 5:41 AM EST 6:46 PM EST
Astronomical Twilight 5:09 AM EST 7:17 PM EST
Moon 8:41 AM EST 10:17 PM EST
Length of Visible Light 12h 00m
Length of Day
11h 04m
Tomorrow will be 2m 34s longer.
Waxing Crescent, 22% of the Moon is Illuminated
Today
Waxing Crescent
Sep 2
First Quarter
Sep 8
Full
Sep 15
Last Quarter
Sep 24
New

Yesterday's Extremes

Country Highs Country Lows

Community

WunderPhotos

Upload Photos

1,748,500 photos uploaded!

WunderBlogs® & News

By Dr. Jeff Masters
Director of Meteorology, Weather Underground
By Kari Strenfel
Meteorologist, Weather Underground
By Christopher C. Burt
Weather Historian, Weather Underground
August 30, 2014
August 30, 2014
August 30, 2014

Nearby

Snow Depth

Not available.

Earthquake Activity

City Distance Mag. Time & Date
No recent earthquake activity has been reported nearby.
Minimum magnitude displayed is 2.5.

Coastal Water Temperatures

Place Temperature
No Stations Reporting

Nearby Weather Stations